Aeroporto :
LOGIN :

Iscrizione | Disclaimer

   EN    FR    IT 

 










Sommario :    VFR   VFR Marginale   IFR   IFR Intensivo   IFR Molto Intensivo
Visibilità : 
Base nubi : 
>= 8 km
>= 3000ft
5 / 8 km
1000 / 3000 ft
1500m / 5 km
500 / 1000 ft
800 / 1500m
200 / 500 ft
< 800m
< 200 ft
Simboli :   Temporali  Nebbia  Neve Forte  Precipitazioni Forti  Vento > 20 kt
SIGMETs :   Varie  Temporali  Ghiacco  Turbolenza  Onda orograficha  Ceneri Vulcaniche






- Altitudine del aeroporto : 735 ft
- Codice IATA : EGO


UUOB - Belgorod

ULTIMO METAR :
  • 050400Z 17005MPS CAVOK 14/10 Q1011 R29/010060 NOSIG

METARs OBSOLETI :
  • 050330Z 17004MPS CAVOK 13/09 Q1012 R29/010060 NOSIG
  • 050300Z 16003MPS CAVOK 13/10 Q1011 R29/010060 NOSIG
  • 050230Z 16003MPS 9999 FEW043 12/09 Q1011 R29/010060 NOSIG
  • 050200Z 16004MPS 9999 FEW043 11/09 Q1011 R29/010060 NOSIG
  • 050130Z 17004MPS 9999 FEW043 11/09 Q1011 R29/010060 NOSIG

TAF TAF UUOB
Valido dal 05 a 03 ore il 05 a 12 ore UTC


050200Z 0503/0512 18005G10MPS 9999 BKN030
TEMPO 0506/0512 3100 -TSRA BR BKN020CB



MetMap, La meteo Aeronautica in un colpo d'occhio ! - Copyright ORBIFLY Dicembre 2007 - Disclaimer

ORBIFLY MET'MAP TEAM :

Programmazione e sviluppo : Alexandra Zaïnal
Concezione : Baudouin d'Aumeries
Aiuto per la programmazione : Marc-Olivier Méhu
Supporto tecnico e logistico : Manuel Goepfert
Aiuto per la traduzione : Arnaldo La Scala

Contatto : metmap@orbifly.com




FONTI E CREDITI :

   NOAA